createdAt,value
2022-08-01T00:01:56.087Z,97933.31
2022-08-01T00:04:22.894Z,97936.14
2022-08-01T00:06:49.436Z,97933.80
2022-08-01T00:09:23.768Z,97934.64
2022-08-01T00:11:59.620Z,97932.90
2022-08-01T00:14:32.689Z,97935.67
2022-08-01T00:17:05.123Z,97937.81
2022-08-01T00:19:32.247Z,97940.27
2022-08-01T00:21:59.098Z,97940.91
2022-08-01T00:24:25.844Z,97937.55
2022-08-01T00:26:52.476Z,97939.02
2022-08-01T00:30:10.427Z,97939.23
2022-08-01T00:32:05.819Z,97937.42
2022-08-01T00:34:32.855Z,97933.64
2022-08-01T00:36:59.382Z,97934.36
2022-08-01T00:39:26.076Z,97937.44
2022-08-01T00:41:59.677Z,97932.67
2022-08-01T00:44:27.970Z,97933.20
2022-08-01T00:46:54.568Z,97934.07
2022-08-01T00:49:21.268Z,97937.40
2022-08-01T00:51:48.550Z,97938.53
2022-08-01T00:54:17.064Z,97938.70
2022-08-01T00:56:44.673Z,97934.52
2022-08-01T00:59:14.122Z,97936.33
2022-08-01T01:01:46.580Z,97935.52
2022-08-01T01:04:13.937Z,97935.84
2022-08-01T01:06:43.356Z,97935.52
2022-08-01T01:09:30.351Z,97938.64
2022-08-01T01:12:38.454Z,97935.30
2022-08-01T01:15:19.068Z,97938.71
2022-08-01T01:17:52.104Z,97937.88
2022-08-01T01:20:21.503Z,97940.27
2022-08-01T01:22:54.235Z,97940.29
2022-08-01T01:25:20.800Z,97940.33
2022-08-01T01:28:13.324Z,97942.27
2022-08-01T01:30:43.932Z,97940.83
2022-08-01T01:33:13.872Z,97944.48
2022-08-01T01:35:47.305Z,97943.55
2022-08-01T01:38:19.866Z,97941.19
2022-08-01T01:40:48.957Z,97943.67
2022-08-01T01:43:17.609Z,97945.77
2022-08-01T01:45:46.542Z,97944.82
2022-08-01T01:48:19.446Z,97946.87
2022-08-01T01:50:47.811Z,97945.50
2022-08-01T01:53:18.739Z,97947.46
2022-08-01T01:55:49.381Z,97945.09
2022-08-01T01:58:18.802Z,97943.71
2022-08-01T02:00:47.762Z,97944.38
2022-08-01T02:03:15.446Z,97944.23
2022-08-01T02:05:43.181Z,97939.67
2022-08-01T02:08:11.455Z,97941.66
2022-08-01T02:10:39.915Z,97940.56
2022-08-01T02:13:07.258Z,97940.59
2022-08-01T02:15:37.270Z,97937.52
2022-08-01T02:18:04.073Z,97935.75
2022-08-01T02:20:32.089Z,97937.11
2022-08-01T02:23:11.924Z,97937.20
2022-08-01T02:26:09.691Z,97935.33
2022-08-01T02:29:03.610Z,97938.74
2022-08-01T02:31:33.748Z,97942.09
2022-08-01T02:34:05.365Z,97938.83
2022-08-01T02:36:35.013Z,97939.94
2022-08-01T02:39:09.949Z,97936.40
2022-08-01T02:41:41.913Z,97940.27
2022-08-01T02:44:11.852Z,97937.49
2022-08-01T02:46:44.630Z,97937.65
2022-08-01T02:49:13.477Z,97940.44
2022-08-01T02:51:42.087Z,97944.23
2022-08-01T02:54:11.202Z,97939.41
2022-08-01T02:56:39.415Z,97945.23
2022-08-01T02:59:10.254Z,97947.81
2022-08-01T03:01:37.687Z,97948.35
2022-08-01T03:04:06.271Z,97952.66
2022-08-01T03:06:34.965Z,97951.38
2022-08-01T03:09:04.164Z,97954.35
2022-08-01T03:11:31.889Z,97953.38
2022-08-01T03:14:02.656Z,97952.40
2022-08-01T03:16:30.792Z,97954.39
2022-08-01T03:18:58.823Z,97959.20
2022-08-01T03:21:27.072Z,97952.02
2022-08-01T03:23:56.618Z,97954.42
2022-08-01T03:26:26.011Z,97952.19
2022-08-01T03:28:56.870Z,97954.04
2022-08-01T03:31:24.801Z,97954.02
2022-08-01T03:33:51.836Z,97951.86
2022-08-01T03:36:24.065Z,97953.05
2022-08-01T03:38:54.704Z,97954.45
2022-08-01T03:41:23.186Z,97957.98
2022-08-01T03:43:56.381Z,97961.41
2022-08-01T03:46:33.979Z,97962.52
2022-08-01T03:49:07.452Z,97963.89
2022-08-01T03:51:34.637Z,97969.55
2022-08-01T03:54:03.022Z,97973.40
2022-08-01T03:56:31.127Z,97972.69
2022-08-01T03:58:58.284Z,97975.06
2022-08-01T04:01:25.579Z,97976.73
2022-08-01T04:03:52.667Z,97979.98
2022-08-01T04:06:19.416Z,97977.85
2022-08-01T04:08:46.795Z,97985.98
2022-08-01T04:11:13.365Z,97988.83
2022-08-01T04:13:40.157Z,97991.34
2022-08-01T04:16:11.092Z,97992.96
2022-08-01T04:18:37.741Z,97994.45
2022-08-01T04:21:04.484Z,97993.30
2022-08-01T04:23:35.726Z,97993.42
2022-08-01T04:26:05.599Z,97990.29
2022-08-01T04:28:34.435Z,97994.08
2022-08-01T04:31:02.335Z,97995.95
2022-08-01T04:33:31.421Z,97988.88
2022-08-01T04:36:03.653Z,97990.89
2022-08-01T04:38:34.727Z,97989.10
2022-08-01T04:41:08.976Z,97988.38
2022-08-01T04:43:38.486Z,97989.70
2022-08-01T04:46:09.137Z,97989.22
2022-08-01T04:48:38.543Z,97988.36
2022-08-01T04:51:12.203Z,97984.70
2022-08-01T04:53:39.073Z,97985.41
2022-08-01T04:56:05.888Z,97987.48
2022-08-01T04:58:32.490Z,97989.77
2022-08-01T05:00:59.080Z,97990.08
2022-08-01T05:03:25.740Z,97989.14
2022-08-01T05:05:52.386Z,97991.09
2022-08-01T05:08:19.063Z,97993.06
2022-08-01T05:10:45.879Z,97991.03
2022-08-01T05:13:12.446Z,97992.09
2022-08-01T05:15:39.165Z,97996.60
2022-08-01T05:18:08.553Z,97995.05
2022-08-01T05:20:35.630Z,97994.42
2022-08-01T05:23:02.371Z,97997.11
2022-08-01T05:25:56.295Z,97994.20
2022-08-01T05:28:19.025Z,97994.64
2022-08-01T05:30:46.460Z,97995.21
2022-08-01T05:33:13.044Z,98000.79
2022-08-01T05:35:48.907Z,98004.32
2022-08-01T05:38:16.723Z,98006.48
2022-08-01T05:40:43.478Z,98007.58
2022-08-01T05:43:10.273Z,98009.61
2022-08-01T05:45:36.787Z,98011.12
2022-08-01T05:48:03.599Z,98007.96
2022-08-01T05:50:30.154Z,98008.95
2022-08-01T05:52:56.883Z,98003.41
2022-08-01T05:55:23.537Z,98004.69
2022-08-01T05:57:50.262Z,98005.67
2022-08-01T06:00:16.871Z,98012.41
2022-08-01T06:02:43.928Z,98013.66
2022-08-01T06:05:13.227Z,98016.19
2022-08-01T06:07:40.515Z,98020.80
2022-08-01T06:10:08.539Z,98022.34
2022-08-01T06:12:35.776Z,98026.86
2022-08-01T06:15:03.519Z,98026.73
2022-08-01T06:17:30.159Z,98026.07
2022-08-01T06:19:56.909Z,98031.97
2022-08-01T06:22:23.848Z,98035.34
2022-08-01T06:24:51.307Z,98036.74
2022-08-01T06:27:21.516Z,98044.08
2022-08-01T06:29:53.432Z,98044.83
2022-08-01T06:32:26.322Z,98044.87
2022-08-01T06:34:55.559Z,98044.94
2022-08-01T06:37:22.624Z,98044.31
2022-08-01T06:39:49.898Z,98044.55
2022-08-01T06:42:16.646Z,98044.29
2022-08-01T06:44:43.184Z,98051.04
2022-08-01T06:47:09.724Z,98054.17
2022-08-01T06:49:36.294Z,98055.95
2022-08-01T06:52:03.259Z,98052.28
2022-08-01T06:54:30.264Z,98053.59
2022-08-01T06:56:56.812Z,98056.27
2022-08-01T06:59:23.441Z,98059.36
2022-08-01T07:01:50.086Z,98058.91
2022-08-01T07:04:16.731Z,98053.95
2022-08-01T07:06:43.333Z,98053.05
2022-08-01T07:09:14.044Z,98052.98
2022-08-01T07:11:41.880Z,98047.56
2022-08-01T07:14:08.747Z,98054.50
2022-08-01T07:16:35.751Z,98054.65
2022-08-01T07:19:02.415Z,98058.33
2022-08-01T07:21:38.862Z,98060.51
2022-08-01T07:24:12.967Z,98060.48
2022-08-01T07:26:52.129Z,98061.42
2022-08-01T07:29:20.935Z,98069.23
2022-08-01T07:31:47.679Z,98072.66
2022-08-01T07:34:14.211Z,98077.23
2022-08-01T07:36:40.862Z,98077.84
2022-08-01T07:39:07.386Z,98077.16
2022-08-01T07:41:53.257Z,98076.80
2022-08-01T07:44:20.855Z,98083.31
2022-08-01T07:46:47.604Z,98077.20
2022-08-01T07:49:14.167Z,98081.43
2022-08-01T07:51:41.099Z,98078.11
2022-08-01T07:54:07.742Z,98080.08
2022-08-01T07:56:34.385Z,98078.82
2022-08-01T07:59:00.929Z,98079.41
2022-08-01T08:01:27.586Z,98079.31
2022-08-01T08:03:54.315Z,98077.83
2022-08-01T08:06:21.058Z,98080.35
2022-08-01T08:08:47.626Z,98080.96
2022-08-01T08:11:14.234Z,98085.85
2022-08-01T08:13:40.880Z,98081.75
2022-08-01T08:16:07.453Z,98079.76
2022-08-01T08:18:34.163Z,98077.32
2022-08-01T08:21:06.208Z,98067.68
2022-08-01T08:23:42.251Z,98069.45
2022-08-01T08:26:13.972Z,98066.20
2022-08-01T08:28:40.911Z,98071.72
2022-08-01T08:31:25.674Z,98072.18
2022-08-01T08:33:55.494Z,98069.81
2022-08-01T08:36:22.134Z,98063.58
2022-08-01T08:38:58.604Z,98067.55
2022-08-01T08:41:25.975Z,98063.38
2022-08-01T08:43:52.511Z,98058.79
2022-08-01T08:46:27.993Z,98067.49
2022-08-01T08:48:57.333Z,98066.92
2022-08-01T08:51:27.815Z,98067.30
2022-08-01T08:53:58.837Z,98068.50
2022-08-01T08:56:26.398Z,98075.42
2022-08-01T08:58:55.303Z,98074.45
2022-08-01T09:01:22.845Z,98071.04
2022-08-01T09:03:49.891Z,98075.91
2022-08-01T09:06:16.413Z,98070.66
2022-08-01T09:08:43.107Z,98075.28
2022-08-01T09:11:09.740Z,98078.67
2022-08-01T09:13:36.444Z,98085.11
2022-08-01T09:16:03.234Z,98085.90
2022-08-01T09:18:38.012Z,98089.94
2022-08-01T09:21:07.753Z,98089.19
2022-08-01T09:23:54.121Z,98091.92
2022-08-01T09:26:35.640Z,98089.50
2022-08-01T09:29:08.465Z,98090.23
2022-08-01T09:31:42.255Z,98095.31
2022-08-01T09:34:15.782Z,98092.80
2022-08-01T09:36:54.405Z,98091.90
2022-08-01T09:39:23.351Z,98091.53
2022-08-01T09:41:50.242Z,98085.21
2022-08-01T09:44:18.521Z,98088.20
2022-08-01T09:46:57.795Z,98087.67
2022-08-01T09:49:50.558Z,98087.23
2022-08-01T09:52:25.652Z,98090.29
2022-08-01T09:55:01.557Z,98087.73
2022-08-01T09:57:29.931Z,98083.84
2022-08-01T10:00:01.399Z,98088.91
2022-08-01T10:02:41.306Z,98087.06
2022-08-01T10:05:10.586Z,98086.48
2022-08-01T10:07:57.991Z,98089.41
2022-08-01T10:10:29.044Z,98089.10
2022-08-01T10:12:58.109Z,98091.52
2022-08-01T10:15:36.372Z,98093.97
2022-08-01T10:18:16.099Z,98084.11
2022-08-01T10:20:44.023Z,98082.79
2022-08-01T10:23:12.092Z,98080.90
2022-08-01T10:25:46.990Z,98082.71
2022-08-01T10:28:21.418Z,98081.46
2022-08-01T10:30:50.760Z,98081.20
2022-08-01T10:33:20.040Z,98078.66
2022-08-01T10:36:08.564Z,98080.91
2022-08-01T10:38:37.128Z,98079.70
2022-08-01T10:41:06.785Z,98081.89
2022-08-01T10:43:36.279Z,98080.58
2022-08-01T10:46:05.085Z,98078.70
2022-08-01T10:49:02.076Z,98072.36
2022-08-01T10:51:52.904Z,98071.63
2022-08-01T10:54:16.422Z,98074.44
2022-08-01T10:56:48.620Z,98073.95
2022-08-01T10:59:50.940Z,98071.88
2022-08-01T11:02:09.182Z,98068.68
2022-08-01T11:04:38.557Z,98066.43
2022-08-01T11:07:10.149Z,98071.32
2022-08-01T11:09:45.953Z,98068.52
2022-08-01T11:12:24.894Z,98061.23
2022-08-01T11:15:02.681Z,98070.80
2022-08-01T11:17:47.050Z,98070.32
2022-08-01T11:20:17.374Z,98067.18
2022-08-01T11:23:03.222Z,98065.73
2022-08-01T11:26:06.724Z,98068.67
2022-08-01T11:28:30.093Z,98061.15
2022-08-01T11:31:07.913Z,98058.20
2022-08-01T11:33:41.128Z,98056.08
2022-08-01T11:36:14.852Z,98055.97
2022-08-01T11:39:00.659Z,98053.30
2022-08-01T11:41:37.170Z,98051.34
2022-08-01T11:44:14.266Z,98051.77
2022-08-01T11:47:02.059Z,98051.14
2022-08-01T11:49:39.221Z,98045.88
2022-08-01T11:52:09.395Z,98050.27
2022-08-01T11:54:47.070Z,98045.83
2022-08-01T11:57:22.932Z,98042.19
2022-08-01T12:00:03.647Z,98045.30
2022-08-01T12:02:33.785Z,98041.04
2022-08-01T12:05:11.955Z,98041.33
2022-08-01T12:07:40.731Z,98041.64
2022-08-01T12:10:16.409Z,98039.19
2022-08-01T12:12:47.442Z,98039.41
2022-08-01T12:15:14.658Z,98033.23
2022-08-01T12:17:58.957Z,98034.58
2022-08-01T12:20:32.105Z,98037.20
2022-08-01T12:23:04.237Z,98035.30
2022-08-01T12:25:30.861Z,98040.66
2022-08-01T12:28:04.805Z,98040.80
2022-08-01T12:30:32.735Z,98041.95
2022-08-01T12:32:59.495Z,98038.41
2022-08-01T12:35:29.439Z,98033.91
2022-08-01T12:37:59.005Z,98035.15
2022-08-01T12:40:34.472Z,98038.17
2022-08-01T12:43:03.634Z,98034.40
2022-08-01T12:45:39.660Z,98032.75
2022-08-01T12:48:11.970Z,98038.98
2022-08-01T12:50:43.447Z,98036.30
2022-08-01T12:53:10.873Z,98030.58
2022-08-01T12:55:58.733Z,98033.10
2022-08-01T12:58:32.295Z,98032.73
2022-08-01T13:01:12.554Z,98032.22
2022-08-01T13:03:40.676Z,98034.88
2022-08-01T13:06:12.761Z,98033.21
2022-08-01T13:08:39.342Z,98034.15
2022-08-01T13:11:13.234Z,98032.98
2022-08-01T13:13:44.567Z,98028.96
2022-08-01T13:16:16.302Z,98028.58
2022-08-01T13:18:58.334Z,98028.61
2022-08-01T13:21:30.053Z,98029.96
2022-08-01T13:24:16.714Z,98027.79
2022-08-01T13:26:54.011Z,98029.00
2022-08-01T13:29:23.239Z,98024.10
2022-08-01T13:31:50.466Z,98030.11
2022-08-01T13:34:17.579Z,98033.79
2022-08-01T13:36:49.016Z,98034.98
2022-08-01T13:39:16.859Z,98032.88
2022-08-01T13:41:44.294Z,98029.66
2022-08-01T13:44:11.252Z,98031.05
2022-08-01T13:46:39.214Z,98029.72
2022-08-01T13:49:15.936Z,98032.45
2022-08-01T13:51:43.595Z,98039.06
2022-08-01T13:54:10.279Z,98040.41
2022-08-01T13:56:36.890Z,98041.66
2022-08-01T13:59:03.834Z,98042.30
2022-08-01T14:01:34.157Z,98039.96
2022-08-01T14:04:02.512Z,98044.86
2022-08-01T14:06:29.971Z,98046.23
2022-08-01T14:08:56.519Z,98041.94
2022-08-01T14:11:23.607Z,98045.87
2022-08-01T14:13:50.275Z,98045.06
2022-08-01T14:16:18.671Z,98047.55
2022-08-01T14:18:46.291Z,98054.64
2022-08-01T14:21:13.775Z,98058.02
2022-08-01T14:23:40.394Z,98061.43
2022-08-01T14:26:11.834Z,98058.59
2022-08-01T14:28:40.147Z,98058.98
2022-08-01T14:31:07.867Z,98063.05
2022-08-01T14:33:34.922Z,98068.08
2022-08-01T14:36:20.624Z,98071.58
2022-08-01T14:38:48.551Z,98072.27
2022-08-01T14:41:15.952Z,98075.90
2022-08-01T14:43:42.893Z,98076.48
2022-08-01T14:46:09.765Z,98074.57
2022-08-01T14:48:36.685Z,98071.23
2022-08-01T14:51:03.346Z,98074.55
2022-08-01T14:53:30.285Z,98078.53
2022-08-01T14:55:57.126Z,98080.89
2022-08-01T14:58:23.627Z,98079.08
2022-08-01T15:00:51.696Z,98080.45
2022-08-01T15:03:22.013Z,98079.17
2022-08-01T15:05:48.814Z,98081.23
2022-08-01T15:08:15.458Z,98084.02
2022-08-01T15:10:42.000Z,98081.16
2022-08-01T15:13:08.644Z,98081.52
2022-08-01T15:15:35.203Z,98079.83
2022-08-01T15:18:01.715Z,98082.83
2022-08-01T15:20:28.291Z,98087.84
2022-08-01T15:22:55.360Z,98082.23
2022-08-01T15:25:22.259Z,98082.17
2022-08-01T15:27:49.219Z,98080.19
2022-08-01T15:30:16.060Z,98079.92
2022-08-01T15:32:42.702Z,98081.14
2022-08-01T15:35:09.581Z,98078.61
2022-08-01T15:37:40.840Z,98074.38
2022-08-01T15:40:10.591Z,98077.17
2022-08-01T15:42:37.259Z,98073.48
2022-08-01T15:45:04.311Z,98072.19
2022-08-01T15:47:31.778Z,98071.30
2022-08-01T15:49:58.386Z,98069.92
2022-08-01T15:52:31.621Z,98072.00
2022-08-01T15:54:59.077Z,98071.35
2022-08-01T15:57:25.891Z,98074.47
2022-08-01T15:59:52.806Z,98074.13
2022-08-01T16:02:19.551Z,98072.86
2022-08-01T16:04:46.063Z,98067.91
2022-08-01T16:07:12.585Z,98069.30
2022-08-01T16:09:39.546Z,98069.99
2022-08-01T16:12:06.832Z,98071.23
2022-08-01T16:14:33.549Z,98072.33
2022-08-01T16:17:00.186Z,98072.63
2022-08-01T16:19:26.755Z,98073.38
2022-08-01T16:21:53.399Z,98074.54
2022-08-01T16:24:20.221Z,98078.55
2022-08-01T16:26:47.064Z,98079.78
2022-08-01T16:29:13.604Z,98076.82
2022-08-01T16:31:53.046Z,98080.73
2022-08-01T16:34:27.164Z,98082.96
2022-08-01T16:36:55.904Z,98085.64
2022-08-01T16:39:23.685Z,98083.95
2022-08-01T16:41:55.146Z,98081.30
2022-08-01T16:44:26.775Z,98082.16
2022-08-01T16:47:01.339Z,98081.75
2022-08-01T16:49:27.926Z,98080.80
2022-08-01T16:51:54.539Z,98081.46
2022-08-01T16:54:25.559Z,98077.45
2022-08-01T16:56:53.403Z,98082.52
2022-08-01T16:59:20.420Z,98080.34
2022-08-01T17:01:59.462Z,98082.66
2022-08-01T17:04:31.665Z,98081.35
2022-08-01T17:06:58.846Z,98082.35
2022-08-01T17:09:25.490Z,98082.41
2022-08-01T17:11:52.242Z,98086.61
2022-08-01T17:14:18.919Z,98088.19
2022-08-01T17:16:45.565Z,98090.36
2022-08-01T17:19:12.195Z,98094.78
2022-08-01T17:21:42.437Z,98093.89
2022-08-01T17:24:09.898Z,98096.53
2022-08-01T17:26:38.200Z,98095.20
2022-08-01T17:29:05.051Z,98093.91
2022-08-01T17:31:31.776Z,98094.14
2022-08-01T17:33:58.418Z,98096.59
2022-08-01T17:36:25.048Z,98097.08
2022-08-01T17:38:51.764Z,98096.35
2022-08-01T17:41:18.443Z,98097.61
2022-08-01T17:43:45.081Z,98101.11
2022-08-01T17:46:11.742Z,98099.21
2022-08-01T17:48:38.394Z,98103.02
2022-08-01T17:51:04.955Z,98103.42
2022-08-01T17:53:31.648Z,98109.62
2022-08-01T17:55:58.589Z,98109.84
2022-08-01T17:58:49.151Z,98110.27
2022-08-01T18:01:15.283Z,98112.95
2022-08-01T18:03:42.210Z,98114.98
2022-08-01T18:06:10.600Z,98112.87
2022-08-01T18:08:37.298Z,98117.32
2022-08-01T18:11:03.967Z,98116.55
2022-08-01T18:13:30.615Z,98117.07
2022-08-01T18:15:57.938Z,98121.58
2022-08-01T18:18:33.128Z,98122.42
2022-08-01T18:21:04.543Z,98122.19
2022-08-01T18:23:32.034Z,98119.52
2022-08-01T18:25:58.638Z,98120.67
2022-08-01T18:28:33.645Z,98122.45
2022-08-01T18:31:02.193Z,98124.46
2022-08-01T18:33:28.911Z,98125.10
2022-08-01T18:35:55.457Z,98124.27
2022-08-01T18:38:27.375Z,98128.55
2022-08-01T18:40:54.062Z,98132.81
2022-08-01T18:43:20.634Z,98131.83
2022-08-01T18:45:47.354Z,98135.84
2022-08-01T18:48:14.319Z,98141.54
2022-08-01T18:50:41.077Z,98146.77
2022-08-01T18:53:07.692Z,98147.58
2022-08-01T18:55:34.335Z,98149.81
2022-08-01T18:58:01.116Z,98156.79
2022-08-01T19:00:27.826Z,98160.33
2022-08-01T19:02:54.353Z,98168.03
2022-08-01T19:05:21.212Z,98167.26
2022-08-01T19:08:06.017Z,98170.06
2022-08-01T19:10:35.604Z,98176.18
2022-08-01T19:13:02.375Z,98176.09
2022-08-01T19:15:29.089Z,98176.48
2022-08-01T19:17:55.932Z,98176.82
2022-08-01T19:20:22.632Z,98177.86
2022-08-01T19:22:49.324Z,98180.89
2022-08-01T19:25:16.070Z,98185.88
2022-08-01T19:27:47.948Z,98186.67
2022-08-01T19:30:15.925Z,98188.97
2022-08-01T19:32:44.499Z,98190.80
2022-08-01T19:35:13.400Z,98192.67
2022-08-01T19:37:42.216Z,98195.65
2022-08-01T19:40:09.209Z,98199.73
2022-08-01T19:42:42.339Z,98203.48
2022-08-01T19:45:09.967Z,98202.84
2022-08-01T19:47:55.974Z,98203.28
2022-08-01T19:50:28.993Z,98204.79
2022-08-01T19:52:56.748Z,98205.39
2022-08-01T19:55:29.062Z,98208.83
2022-08-01T19:58:25.728Z,98212.86
2022-08-01T20:00:44.883Z,98215.80
2022-08-01T20:03:15.017Z,98218.61
2022-08-01T20:05:42.624Z,98219.20
2022-08-01T20:08:09.418Z,98222.21
2022-08-01T20:10:36.750Z,98221.31
2022-08-01T20:13:04.529Z,98218.70
2022-08-01T20:15:31.371Z,98217.33
2022-08-01T20:17:58.502Z,98218.84
2022-08-01T20:20:25.809Z,98215.52
2022-08-01T20:22:56.929Z,98212.31
2022-08-01T20:25:32.054Z,98216.52
2022-08-01T20:28:06.604Z,98219.23
2022-08-01T20:30:33.341Z,98225.93
2022-08-01T20:33:00.259Z,98219.67
2022-08-01T20:35:51.722Z,98217.46
2022-08-01T20:38:17.645Z,98219.48
2022-08-01T20:40:44.586Z,98220.05
2022-08-01T20:43:12.359Z,98220.35
2022-08-01T20:45:39.409Z,98221.05
2022-08-01T20:48:08.128Z,98222.21
2022-08-01T20:50:53.737Z,98223.65
2022-08-01T20:53:23.186Z,98224.73
2022-08-01T20:55:59.571Z,98223.77
2022-08-01T20:58:37.586Z,98224.69
2022-08-01T21:01:04.774Z,98228.82
2022-08-01T21:04:22.207Z,98231.20
2022-08-01T21:07:02.736Z,98227.44
2022-08-01T21:09:36.879Z,98227.55
2022-08-01T21:12:10.704Z,98229.41
2022-08-01T21:14:47.745Z,98227.94
2022-08-01T21:17:22.792Z,98227.35
2022-08-01T21:19:55.549Z,98236.83
2022-08-01T21:22:35.532Z,98233.95
2022-08-01T21:25:07.191Z,98238.98
2022-08-01T21:27:35.542Z,98240.70
2022-08-01T21:30:07.585Z,98239.17
2022-08-01T21:32:35.915Z,98238.56
2022-08-01T21:35:05.200Z,98240.14
2022-08-01T21:37:32.234Z,98241.05
2022-08-01T21:39:59.499Z,98244.88
2022-08-01T21:42:28.325Z,98246.51
2022-08-01T21:44:58.941Z,98248.66
2022-08-01T21:47:29.445Z,98247.24
2022-08-01T21:50:01.661Z,98246.00
2022-08-01T21:52:37.722Z,98248.46
2022-08-01T21:55:11.007Z,98253.45
2022-08-01T21:58:18.310Z,98253.55
2022-08-01T22:00:52.583Z,98251.28
2022-08-01T22:03:40.731Z,98255.89
2022-08-01T22:06:08.074Z,98255.25
2022-08-01T22:08:37.984Z,98253.06
2022-08-01T22:11:07.587Z,98255.47
2022-08-01T22:13:35.584Z,98254.41
2022-08-01T22:16:04.861Z,98254.89
2022-08-01T22:18:33.869Z,98253.65
2022-08-01T22:21:02.895Z,98253.65
2022-08-01T22:23:29.728Z,98254.17
2022-08-01T22:25:56.709Z,98255.85
2022-08-01T22:28:23.733Z,98255.89
2022-08-01T22:30:52.340Z,98252.31
2022-08-01T22:33:19.884Z,98252.01
2022-08-01T22:35:51.235Z,98252.23
2022-08-01T22:38:19.963Z,98253.38
2022-08-01T22:40:53.337Z,98249.61
2022-08-01T22:43:26.117Z,98250.00
2022-08-01T22:46:08.118Z,98247.45
2022-08-01T22:48:51.094Z,98245.35
2022-08-01T22:51:38.188Z,98245.98
2022-08-01T22:54:07.959Z,98249.21
2022-08-01T22:56:41.602Z,98255.02
2022-08-01T22:59:13.790Z,98259.77
2022-08-01T23:01:47.613Z,98258.38
2022-08-01T23:04:33.003Z,98257.05
2022-08-01T23:07:05.331Z,98256.17
2022-08-01T23:09:52.990Z,98252.62
2022-08-01T23:12:24.677Z,98253.41
2022-08-01T23:14:59.248Z,98251.71
2022-08-01T23:17:29.198Z,98254.03
2022-08-01T23:20:01.832Z,98255.37
2022-08-01T23:22:31.713Z,98253.78
2022-08-01T23:25:03.916Z,98259.24
2022-08-01T23:27:51.597Z,98260.42
2022-08-01T23:30:33.275Z,98253.93
2022-08-01T23:33:00.276Z,98250.92
2022-08-01T23:35:28.199Z,98250.70
2022-08-01T23:38:02.306Z,98249.24
2022-08-01T23:40:33.595Z,98250.80
2022-08-01T23:43:01.901Z,98254.05
2022-08-01T23:45:38.217Z,98253.16
2022-08-01T23:48:15.970Z,98252.08
2022-08-01T23:50:42.786Z,98252.40
2022-08-01T23:53:09.735Z,98248.19
2022-08-01T23:55:37.937Z,98253.73
2022-08-01T23:58:05.894Z,98255.71
